Time;durP1;ratioP1;P1;durP2;ratioP2;P2;SDS_P1;SDS_P2;PMS_P1;PMS_P2;Temp;Humidity;BMP_temperature;BMP_pressure;BME280_temperature;BME280_humidity;BME280_pressure;Samples;Min_cycle;Max_cycle;Signal;HPM_P1;HPM_P2
2024/02/05 00:01:54;;;;;;;15.47;4.90;;;11.40;1.00;;;;;;4972631;28;20210;-84
2024/02/05 00:04:21;;;;;;;20.07;5.30;;;11.40;1.00;;;;;;4955508;28;20200;-85
2024/02/05 00:06:46;;;;;;;11.13;4.27;;;11.40;1.00;;;;;;4971918;28;20203;-84
2024/02/05 00:09:12;;;;;;;13.50;5.40;;;11.40;1.00;;;;;;4953617;29;20493;-84
2024/02/05 00:11:37;;;;;;;17.53;4.83;;;11.40;1.00;;;;;;4949538;28;20265;-84
2024/02/05 00:14:03;;;;;;;21.57;5.60;;;11.40;1.00;;;;;;4947042;29;20189;-84
2024/02/05 00:16:28;;;;;;;13.87;5.70;;;11.40;1.00;;;;;;4952145;29;20177;-84
2024/02/05 00:18:54;;;;;;;16.07;5.40;;;11.50;1.00;;;;;;4951704;29;20189;-84
2024/02/05 00:21:19;;;;;;;15.23;5.00;;;11.50;1.00;;;;;;4952237;28;20213;-84
2024/02/05 00:23:45;;;;;;;13.40;5.30;;;11.50;1.00;;;;;;4951043;28;20216;-84
2024/02/05 00:26:10;;;;;;;18.13;5.07;;;11.50;1.00;;;;;;4949689;28;20193;-84
2024/02/05 00:28:36;;;;;;;22.53;5.70;;;11.50;1.00;;;;;;4953518;29;20276;-84
2024/02/05 00:31:02;;;;;;;25.70;6.17;;;11.50;1.00;;;;;;4949300;28;20722;-84
2024/02/05 00:33:27;;;;;;;15.13;6.00;;;11.50;1.00;;;;;;4953634;29;20193;-85
2024/02/05 00:35:53;;;;;;;16.97;4.83;;;11.50;1.00;;;;;;4952785;28;20190;-84
2024/02/05 00:38:18;;;;;;;17.53;6.20;;;11.50;1.00;;;;;;4967647;28;20214;-84
2024/02/05 00:40:44;;;;;;;22.70;6.00;;;11.50;1.00;;;;;;4953360;28;20272;-85
2024/02/05 00:43:10;;;;;;;23.93;6.17;;;11.50;1.00;;;;;;4951208;28;20185;-84
2024/02/05 00:45:36;;;;;;;13.23;4.90;;;11.50;1.00;;;;;;4951153;29;20455;-84
2024/02/05 00:48:03;;;;;;;15.97;5.10;;;11.50;1.00;;;;;;4952679;28;20448;-84
2024/02/05 00:50:28;;;;;;;17.50;5.03;;;11.50;1.00;;;;;;4953165;28;20575;-84
2024/02/05 00:52:54;;;;;;;18.27;5.23;;;11.50;1.00;;;;;;4952119;28;20551;-84
2024/02/05 00:55:20;;;;;;;11.90;5.40;;;11.50;1.00;;;;;;4955844;29;20197;-84
2024/02/05 00:57:46;;;;;;;15.03;5.20;;;11.50;1.00;;;;;;4951532;28;20186;-84
2024/02/05 01:00:12;;;;;;;26.03;6.07;;;11.50;1.00;;;;;;4972945;28;20451;-84
2024/02/05 01:02:39;;;;;;;13.83;5.37;;;11.50;1.00;;;;;;4955912;28;20510;-84
2024/02/05 01:05:05;;;;;;;14.83;6.07;;;11.40;1.00;;;;;;4955370;29;20441;-85
2024/02/05 01:07:31;;;;;;;17.17;6.80;;;11.50;1.00;;;;;;4957039;28;20499;-84
2024/02/05 01:09:56;;;;;;;13.03;4.67;;;11.50;1.00;;;;;;4957753;29;20480;-85
2024/02/05 01:12:22;;;;;;;18.57;5.27;;;11.50;1.00;;;;;;4954822;28;20206;-84
2024/02/05 01:14:47;;;;;;;18.00;4.73;;;11.50;1.00;;;;;;4956446;29;20676;-84
2024/02/05 01:17:13;;;;;;;22.60;6.90;;;11.50;1.00;;;;;;4972222;28;20268;-86
2024/02/05 01:19:39;;;;;;;13.50;5.80;;;11.50;1.00;;;;;;4955390;29;20227;-85
2024/02/05 01:22:04;;;;;;;14.20;5.53;;;11.50;1.00;;;;;;4960008;28;20472;-84
2024/02/05 01:24:30;;;;;;;28.43;6.57;;;11.50;1.00;;;;;;4958536;29;20197;-84
2024/02/05 01:26:56;;;;;;;22.17;5.70;;;11.50;1.00;;;;;;4958975;29;20234;-84
2024/02/05 01:29:21;;;;;;;12.33;5.17;;;11.50;1.00;;;;;;4953029;29;20459;-85
2024/02/05 01:31:48;;;;;;;21.70;5.30;;;11.50;1.00;;;;;;4958657;28;20609;-84
2024/02/05 01:34:13;;;;;;;22.50;6.17;;;11.50;1.00;;;;;;4959180;28;20185;-84
2024/02/05 01:36:39;;;;;;;17.23;5.47;;;11.50;1.00;;;;;;4957410;29;20508;-84
2024/02/05 01:39:04;;;;;;;20.10;5.57;;;11.50;1.00;;;;;;4957399;29;20235;-84
2024/02/05 01:41:31;;;;;;;20.80;7.60;;;11.50;1.00;;;;;;4956292;28;20325;-85
2024/02/05 01:43:57;;;;;;;19.80;5.03;;;11.50;1.00;;;;;;4972192;28;20579;-84
2024/02/05 01:46:25;;;;;;;18.93;6.43;;;11.50;1.00;;;;;;4955336;28;20519;-84
2024/02/05 01:48:55;;;;;;;12.50;4.80;;;11.50;1.00;;;;;;4957383;28;20735;-84
2024/02/05 01:51:22;;;;;;;16.20;5.27;;;11.50;1.00;;;;;;4951736;28;20479;-84
2024/02/05 01:53:50;;;;;;;14.80;4.80;;;11.50;1.00;;;;;;4956033;28;20444;-84
2024/02/05 01:56:16;;;;;;;31.00;6.20;;;11.50;1.00;;;;;;4954748;29;20492;-84
2024/02/05 01:58:42;;;;;;;21.60;5.50;;;11.50;1.00;;;;;;4954430;29;20437;-84
2024/02/05 02:01:09;;;;;;;16.00;5.50;;;11.50;1.00;;;;;;4970827;28;20212;-84
2024/02/05 02:03:40;;;;;;;23.20;5.30;;;11.50;1.00;;;;;;4950062;28;20181;-84
2024/02/05 02:06:08;;;;;;;20.90;5.63;;;11.50;1.00;;;;;;4954270;28;20437;-84
2024/02/05 02:08:37;;;;;;;16.63;5.73;;;11.50;1.00;;;;;;4953664;28;20433;-84
2024/02/05 02:11:03;;;;;;;15.80;5.13;;;11.50;1.00;;;;;;4967018;28;20499;-84
2024/02/05 02:13:32;;;;;;;23.67;6.60;;;11.50;1.00;;;;;;4954978;29;20429;-84
2024/02/05 02:16:00;;;;;;;22.93;6.73;;;11.50;1.00;;;;;;4956496;29;20819;-83
2024/02/05 02:18:26;;;;;;;19.20;5.43;;;11.50;1.00;;;;;;4968598;28;20996;-84
2024/02/05 02:20:54;;;;;;;20.17;5.87;;;11.50;1.00;;;;;;4955291;28;20448;-84
2024/02/05 02:23:24;;;;;;;17.60;5.63;;;11.50;1.00;;;;;;4953505;28;21262;-86
2024/02/05 02:25:50;;;;;;;15.43;6.27;;;11.50;1.00;;;;;;4960512;29;20473;-84
2024/02/05 02:28:16;;;;;;;21.10;6.93;;;11.50;1.00;;;;;;4957691;28;20441;-84
2024/02/05 02:30:43;;;;;;;20.30;6.33;;;11.40;1.00;;;;;;4959842;28;20465;-84
2024/02/05 02:33:23;;;;;;;17.37;5.13;;;11.40;1.00;;;;;;4960523;28;20181;-85
2024/02/05 02:35:55;;;;;;;28.53;6.20;;;11.40;1.00;;;;;;4958851;29;20449;-85
2024/02/05 02:38:44;;;;;;;25.73;6.77;;;11.40;1.00;;;;;;4968441;28;20442;-85
2024/02/05 02:41:15;;;;;;;22.83;7.40;;;11.40;1.00;;;;;;4942020;28;20469;-84
2024/02/05 02:43:49;;;;;;;25.43;6.43;;;11.40;1.00;;;;;;4959600;28;21854;-84
2024/02/05 02:46:15;;;;;;;19.30;5.43;;;11.40;1.00;;;;;;4959410;29;20436;-84
2024/02/05 02:48:40;;;;;;;31.63;7.77;;;11.40;1.00;;;;;;4953428;28;20506;-84
2024/02/05 02:51:06;;;;;;;31.30;7.10;;;11.40;1.00;;;;;;4955150;28;20476;-84
2024/02/05 02:53:32;;;;;;;27.80;5.93;;;11.40;1.00;;;;;;4957659;28;20196;-84
2024/02/05 02:55:57;;;;;;;19.60;5.53;;;11.40;1.00;;;;;;4958176;28;20174;-84
2024/02/05 02:58:23;;;;;;;15.57;6.33;;;11.40;1.00;;;;;;4956372;29;20472;-83
2024/02/05 03:00:48;;;;;;;25.23;6.00;;;11.40;1.00;;;;;;4957824;28;20675;-84
2024/02/05 03:03:15;;;;;;;28.00;6.70;;;11.40;1.00;;;;;;4958430;29;20196;-82
2024/02/05 03:05:40;;;;;;;23.03;6.03;;;11.40;1.00;;;;;;4956709;29;20185;-84
2024/02/05 03:08:06;;;;;;;28.30;7.47;;;11.40;1.00;;;;;;4957531;28;20443;-86
2024/02/05 03:10:32;;;;;;;28.73;7.43;;;11.30;1.00;;;;;;4955694;29;20499;-84
2024/02/05 03:12:57;;;;;;;30.00;6.03;;;11.40;1.00;;;;;;4955888;28;20523;-84
2024/02/05 03:15:23;;;;;;;22.00;6.57;;;11.30;1.00;;;;;;4955428;28;20268;-84
2024/02/05 03:17:49;;;;;;;26.43;6.13;;;11.40;1.00;;;;;;4969461;28;20185;-84
2024/02/05 03:20:33;;;;;;;21.23;5.90;;;11.30;1.00;;;;;;4955248;29;20190;-84
2024/02/05 03:22:58;;;;;;;25.07;5.67;;;11.30;1.00;;;;;;4953350;29;20479;-84
2024/02/05 03:25:24;;;;;;;24.37;7.40;;;11.30;1.00;;;;;;4955548;29;20436;-83
2024/02/05 03:27:49;;;;;;;31.73;7.43;;;11.30;1.00;;;;;;4954981;29;20625;-84
2024/02/05 03:30:15;;;;;;;24.67;6.63;;;11.30;1.00;;;;;;4952867;28;20205;-84
2024/02/05 03:32:40;;;;;;;23.40;7.03;;;11.30;1.00;;;;;;4955223;28;20683;-84
2024/02/05 03:35:08;;;;;;;23.30;6.80;;;11.30;1.00;;;;;;4955583;28;20200;-84
2024/02/05 03:37:34;;;;;;;26.53;7.17;;;11.30;1.00;;;;;;4955067;28;20202;-84
2024/02/05 03:39:59;;;;;;;17.43;5.40;;;11.30;1.00;;;;;;4954372;28;20480;-84
2024/02/05 03:42:25;;;;;;;28.70;6.87;;;11.30;1.00;;;;;;4954982;28;20375;-84
2024/02/05 03:44:51;;;;;;;17.03;5.00;;;11.30;1.00;;;;;;4955192;28;20217;-84
2024/02/05 03:47:16;;;;;;;20.20;6.30;;;11.20;1.00;;;;;;4954488;29;20472;-85
2024/02/05 03:49:42;;;;;;;21.90;8.07;;;11.20;1.00;;;;;;4954091;29;20209;-84
2024/02/05 03:52:07;;;;;;;27.67;6.07;;;11.20;1.00;;;;;;4954143;28;20217;-83
2024/02/05 03:54:34;;;;;;;16.13;5.57;;;11.20;1.00;;;;;;5005767;23;20246;-88
2024/02/05 03:56:59;;;;;;;27.20;7.20;;;11.20;1.00;;;;;;5002990;28;20187;-88
2024/02/05 03:59:25;;;;;;;21.63;7.03;;;11.20;1.00;;;;;;5004382;28;20435;-87
2024/02/05 04:01:50;;;;;;;15.43;5.43;;;11.20;1.00;;;;;;5004192;28;20255;-87
2024/02/05 04:04:16;;;;;;;19.57;6.37;;;11.20;1.00;;;;;;5000077;28;20220;-86
2024/02/05 04:06:41;;;;;;;23.27;7.30;;;11.20;1.00;;;;;;5002861;28;20208;-87
2024/02/05 04:09:09;;;;;;;20.70;5.40;;;11.20;1.00;;;;;;5002058;28;20727;-87
2024/02/05 04:11:38;;;;;;;21.80;7.00;;;11.20;1.00;;;;;;5003558;28;20215;-86
2024/02/05 04:14:04;;;;;;;20.83;5.77;;;11.10;1.00;;;;;;5001575;28;20462;-87
2024/02/05 04:16:29;;;;;;;24.10;6.03;;;11.10;1.00;;;;;;5003662;28;20455;-88
2024/02/05 04:18:55;;;;;;;25.27;6.73;;;11.10;1.00;;;;;;5004040;28;20187;-87
2024/02/05 04:21:20;;;;;;;15.07;5.50;;;11.10;1.00;;;;;;5005022;28;20196;-85
2024/02/05 04:23:46;;;;;;;37.37;7.77;;;11.10;1.00;;;;;;5004750;28;20223;-87
2024/02/05 04:26:18;;;;;;;27.77;5.50;;;11.10;1.00;;;;;;5003286;28;20188;-86
2024/02/05 04:28:43;;;;;;;21.77;7.00;;;11.10;1.00;;;;;;5003840;28;20318;-87
2024/02/05 04:31:10;;;;;;;21.77;5.67;;;11.20;1.00;;;;;;5003876;28;20486;-85
2024/02/05 04:33:36;;;;;;;29.03;6.70;;;11.20;1.00;;;;;;5001827;28;20202;-86
2024/02/05 04:36:01;;;;;;;18.00;5.70;;;11.10;1.00;;;;;;5001051;28;20463;-87
2024/02/05 04:38:27;;;;;;;23.33;6.10;;;11.10;1.00;;;;;;5002075;28;20614;-86
2024/02/05 04:40:52;;;;;;;24.93;6.30;;;11.10;1.00;;;;;;5001715;28;20196;-86
2024/02/05 04:43:18;;;;;;;23.50;7.00;;;11.10;1.00;;;;;;5003260;28;20211;-84
2024/02/05 04:45:43;;;;;;;21.27;5.80;;;11.10;1.00;;;;;;5002496;28;20195;-84
2024/02/05 04:48:09;;;;;;;19.80;6.03;;;11.10;1.00;;;;;;5001080;28;20188;-86
2024/02/05 04:50:34;;;;;;;23.20;6.67;;;11.10;1.00;;;;;;5001068;28;20223;-84
2024/02/05 04:53:00;;;;;;;27.57;7.20;;;11.10;1.00;;;;;;5010615;28;20268;-87
2024/02/05 04:55:25;;;;;;;12.70;5.50;;;11.10;1.00;;;;;;5006400;28;20196;-86
2024/02/05 04:57:51;;;;;;;26.77;7.03;;;11.00;1.00;;;;;;5007558;28;20192;-86
2024/02/05 05:00:24;;;;;;;20.57;7.70;;;11.00;1.00;;;;;;5005534;28;20187;-86
2024/02/05 05:02:49;;;;;;;21.63;6.23;;;11.10;1.00;;;;;;5007497;28;20509;-89
2024/02/05 05:05:15;;;;;;;22.43;6.20;;;11.10;1.00;;;;;;5006459;28;20427;-85
2024/02/05 05:07:40;;;;;;;21.60;7.27;;;11.10;1.00;;;;;;4997524;28;20215;-86
2024/02/05 05:10:06;;;;;;;22.73;7.23;;;11.10;1.00;;;;;;5003877;28;20564;-85
2024/02/05 05:12:32;;;;;;;20.77;7.37;;;11.10;1.00;;;;;;5005401;28;20237;-85
2024/02/05 05:14:57;;;;;;;25.63;5.70;;;11.10;1.00;;;;;;5005050;28;20415;-86
2024/02/05 05:17:23;;;;;;;22.57;6.53;;;11.00;1.00;;;;;;5004574;28;20195;-87
2024/02/05 05:19:49;;;;;;;29.67;9.77;;;11.10;1.00;;;;;;5005232;28;20192;-86
2024/02/05 05:22:14;;;;;;;26.83;8.80;;;11.00;1.00;;;;;;5005560;28;20192;-86
2024/02/05 05:24:39;;;;;;;26.30;7.10;;;11.10;1.00;;;;;;5003855;28;20208;-86
2024/02/05 05:27:05;;;;;;;16.33;6.00;;;11.00;1.00;;;;;;5002786;28;20180;-82
2024/02/05 05:29:31;;;;;;;31.20;5.80;;;11.00;1.00;;;;;;4999857;28;20188;-85
2024/02/05 05:31:56;;;;;;;18.53;6.10;;;11.00;99.90;;;;;;5004345;28;20191;-86
2024/02/05 05:34:22;;;;;;;26.70;6.70;;;11.00;99.90;;;;;;5005553;28;20192;-84
2024/02/05 05:36:47;;;;;;;21.43;6.03;;;11.00;99.90;;;;;;5005308;28;20836;-84
2024/02/05 05:39:13;;;;;;;30.97;6.80;;;11.00;99.90;;;;;;5003793;28;20267;-86
2024/02/05 05:41:39;;;;;;;18.87;6.87;;;11.00;99.90;;;;;;5001336;28;20330;-85
2024/02/05 05:44:04;;;;;;;26.37;6.57;;;11.00;99.90;;;;;;4997286;28;20482;-85
2024/02/05 05:46:30;;;;;;;22.07;6.80;;;11.00;99.90;;;;;;5003136;28;20322;-85
2024/02/05 05:48:55;;;;;;;16.03;6.10;;;11.00;99.90;;;;;;5004015;28;20610;-84
2024/02/05 05:51:21;;;;;;;31.10;7.93;;;10.90;99.90;;;;;;5004072;28;20210;-85
2024/02/05 05:53:47;;;;;;;26.77;6.00;;;10.90;99.90;;;;;;5003046;28;20216;-86
2024/02/05 05:56:12;;;;;;;30.10;7.20;;;11.00;99.90;;;;;;5003386;28;20443;-85
2024/02/05 05:58:38;;;;;;;24.93;6.40;;;10.90;99.90;;;;;;5002377;28;20180;-86
2024/02/05 06:01:05;;;;;;;24.23;6.40;;;11.00;99.90;;;;;;5006383;28;20180;-86
2024/02/05 06:03:31;;;;;;;22.10;5.30;;;10.90;99.90;;;;;;5006947;28;20196;-87
2024/02/05 06:05:59;;;;;;;24.77;6.80;;;10.90;99.90;;;;;;5006346;28;20531;-88
2024/02/05 06:08:24;;;;;;;18.93;6.20;;;10.90;99.90;;;;;;5006391;28;20439;-87
2024/02/05 06:10:51;;;;;;;30.07;7.00;;;10.90;99.90;;;;;;5017880;28;20486;-86
2024/02/05 06:13:17;;;;;;;18.63;4.80;;;10.90;99.90;;;;;;5005038;28;20196;-86
2024/02/05 06:15:42;;;;;;;30.40;5.87;;;10.90;99.90;;;;;;5005233;28;20455;-87
2024/02/05 06:18:08;;;;;;;24.13;7.17;;;10.90;99.90;;;;;;5000518;28;20583;-85
2024/02/05 06:20:33;;;;;;;26.90;7.40;;;10.90;99.90;;;;;;5005235;28;20188;-85
2024/02/05 06:22:59;;;;;;;15.97;6.33;;;10.90;99.90;;;;;;5004641;28;20204;-86
2024/02/05 06:25:24;;;;;;;22.73;6.00;;;10.80;99.90;;;;;;5003673;28;20192;-85
2024/02/05 06:27:50;;;;;;;37.43;7.37;;;10.80;99.90;;;;;;5005219;28;20195;-85
2024/02/05 06:30:16;;;;;;;28.73;6.27;;;10.90;99.90;;;;;;5004998;28;20294;-85
2024/02/05 06:32:41;;;;;;;22.03;6.00;;;10.80;99.90;;;;;;5005298;28;20203;-84
2024/02/05 06:35:07;;;;;;;19.43;5.30;;;10.80;99.90;;;;;;5002610;28;20206;-85
2024/02/05 06:37:32;;;;;;;15.27;5.63;;;10.80;99.90;;;;;;4999309;28;20180;-85
2024/02/05 06:39:58;;;;;;;23.97;6.87;;;10.80;99.90;;;;;;5002948;28;20199;-85
2024/02/05 06:42:23;;;;;;;20.97;5.80;;;10.80;99.90;;;;;;5003156;28;20192;-87
2024/02/05 06:44:49;;;;;;;15.53;6.07;;;10.80;85.50;;;;;;5000844;28;20289;-86
2024/02/05 06:47:15;;;;;;;18.23;5.40;;;10.70;45.60;;;;;;4999186;28;20200;-87
2024/02/05 06:49:40;;;;;;;32.53;5.90;;;10.70;94.50;;;;;;5003679;28;20748;-86
2024/02/05 06:52:06;;;;;;;31.50;8.03;;;10.70;48.00;;;;;;5004694;28;20423;-86
2024/02/05 06:54:32;;;;;;;20.93;6.63;;;10.70;1.00;;;;;;4999517;28;20262;-84
2024/02/05 06:57:01;;;;;;;24.20;5.77;;;10.70;1.00;;;;;;5001562;28;20686;-87
2024/02/05 06:59:27;;;;;;;19.20;6.20;;;10.70;1.00;;;;;;5002992;28;20940;-87
2024/02/05 07:01:52;;;;;;;26.63;5.60;;;10.70;1.00;;;;;;5000975;28;20466;-86
2024/02/05 07:04:18;;;;;;;16.50;5.20;;;10.70;1.00;;;;;;5018907;28;20231;-86
2024/02/05 07:06:43;;;;;;;27.63;6.93;;;10.70;30.00;;;;;;4994357;28;20188;-82
2024/02/05 07:09:09;;;;;;;22.13;5.83;;;10.70;58.70;;;;;;4995096;28;20180;-84
2024/02/05 07:11:36;;;;;;;18.80;5.00;;;10.80;1.00;;;;;;4993700;28;20246;-84
2024/02/05 07:14:02;;;;;;;22.13;6.37;;;10.80;1.00;;;;;;4992092;28;20725;-84
2024/02/05 07:16:27;;;;;;;9.00;4.97;;;10.80;1.00;;;;;;4991600;28;20808;-85
2024/02/05 07:18:53;;;;;;;29.27;5.30;;;10.80;1.00;;;;;;4991675;28;20442;-83
2024/02/05 07:21:18;;;;;;;20.77;6.53;;;10.80;1.00;;;;;;4991368;28;20184;-84
2024/02/05 07:23:44;;;;;;;16.10;5.63;;;10.80;1.00;;;;;;4995245;28;20204;-85
2024/02/05 07:26:10;;;;;;;22.17;7.30;;;10.80;1.00;;;;;;4994480;28;20184;-86
2024/02/05 07:28:35;;;;;;;25.50;6.30;;;10.80;1.00;;;;;;4995565;28;20675;-85
2024/02/05 07:31:02;;;;;;;21.47;6.00;;;10.80;1.00;;;;;;4993105;28;20748;-85
2024/02/05 07:33:27;;;;;;;18.87;6.23;;;10.80;1.00;;;;;;4995946;28;20573;-85
2024/02/05 07:35:53;;;;;;;19.83;5.53;;;10.80;1.00;;;;;;4994822;28;20518;-85
2024/02/05 07:38:19;;;;;;;22.53;6.60;;;10.90;99.90;;;;;;4993805;28;20180;-85
2024/02/05 07:40:44;;;;;;;18.63;6.00;;;10.90;99.90;;;;;;4995629;28;20558;-86
2024/02/05 07:43:10;;;;;;;19.13;5.90;;;10.90;99.90;;;;;;4995299;28;20219;-83
2024/02/05 07:45:36;;;;;;;16.13;5.77;;;11.00;1.00;;;;;;4995167;28;20431;-88
2024/02/05 07:48:01;;;;;;;19.80;5.57;;;11.10;1.00;;;;;;4993569;28;20230;-86
2024/02/05 07:50:27;;;;;;;22.20;5.73;;;11.20;1.00;;;;;;4986293;28;20223;-87
2024/02/05 07:52:52;;;;;;;25.30;6.50;;;11.20;99.90;;;;;;5006537;28;20222;-85
2024/02/05 07:55:18;;;;;;;15.60;5.90;;;11.40;99.90;;;;;;4991361;28;20283;-85
2024/02/05 07:57:43;;;;;;;19.97;5.83;;;11.40;1.00;;;;;;4997262;28;20250;-86
2024/02/05 08:00:09;;;;;;;25.63;5.90;;;11.40;1.80;;;;;;5008452;28;20234;-86
2024/02/05 08:02:35;;;;;;;15.60;5.83;;;11.40;1.00;;;;;;4990992;28;20195;-86
2024/02/05 08:05:01;;;;;;;18.87;5.53;;;11.30;1.00;;;;;;4993336;28;20850;-86
2024/02/05 08:07:27;;;;;;;29.93;5.87;;;11.30;1.60;;;;;;4992943;28;20450;-85
2024/02/05 08:09:52;;;;;;;20.37;5.83;;;11.20;99.90;;;;;;4993602;28;20510;-86
2024/02/05 08:12:18;;;;;;;20.17;5.90;;;11.20;99.90;;;;;;5001035;28;20184;-86
2024/02/05 08:14:45;;;;;;;25.33;6.80;;;11.20;99.90;;;;;;4993856;28;20236;-85
2024/02/05 08:17:10;;;;;;;19.83;5.80;;;11.30;92.60;;;;;;4992075;28;20485;-85
2024/02/05 08:19:36;;;;;;;27.00;6.50;;;11.40;1.00;;;;;;4992736;28;20435;-86
2024/02/05 08:22:02;;;;;;;20.10;5.47;;;11.50;99.90;;;;;;4991387;28;20179;-86
2024/02/05 08:24:28;;;;;;;14.80;5.00;;;11.80;99.90;;;;;;4991108;28;20200;-89
2024/02/05 08:26:53;;;;;;;16.03;4.90;;;12.30;99.90;;;;;;4986134;28;20260;-86
2024/02/05 08:29:21;;;;;;;15.73;4.70;;;12.30;1.00;;;;;;4990811;28;20487;-86
2024/02/05 08:31:47;;;;;;;16.60;7.00;;;12.50;99.90;;;;;;4992069;28;20218;-87
2024/02/05 08:34:13;;;;;;;22.33;6.00;;;13.20;1.00;;;;;;4992156;28;20454;-88
2024/02/05 08:36:39;;;;;;;19.23;4.93;;;13.20;99.90;;;;;;4985778;28;21008;-85
2024/02/05 08:39:09;;;;;;;22.10;5.93;;;13.10;99.90;;;;;;4990158;28;20176;-86
2024/02/05 08:41:35;;;;;;;29.10;5.43;;;13.20;99.90;;;;;;4990899;28;20435;-87
2024/02/05 08:44:02;;;;;;;21.57;6.30;;;13.10;99.90;;;;;;4988681;28;20459;-87
2024/02/05 08:46:27;;;;;;;15.93;5.27;;;14.10;99.90;;;;;;4989575;28;20270;-87
2024/02/05 08:48:53;;;;;;;21.47;4.93;;;13.90;46.10;;;;;;4990077;28;20588;-85
2024/02/05 08:51:18;;;;;;;15.13;5.43;;;13.80;95.60;;;;;;4988938;28;20227;-86
2024/02/05 08:54:00;;;;;;;17.63;5.07;;;13.70;99.90;;;;;;4988317;28;20219;-87
2024/02/05 08:56:28;;;;;;;20.47;6.37;;;13.40;99.90;;;;;;4987498;28;20567;-87
2024/02/05 08:58:53;;;;;;;26.97;5.77;;;13.10;99.90;;;;;;4994592;28;20880;-87
2024/02/05 09:01:19;;;;;;;20.10;5.93;;;13.20;99.90;;;;;;5004607;28;20454;-87
2024/02/05 09:03:44;;;;;;;19.50;5.93;;;13.10;99.90;;;;;;4991558;28;20207;-86
2024/02/05 09:06:10;;;;;;;19.43;6.00;;;13.00;99.90;;;;;;4992422;28;20254;-84
2024/02/05 09:09:09;;;;;;;24.27;6.60;;;13.00;99.90;;;;;;4990752;28;20192;-86
2024/02/05 09:11:35;;;;;;;19.27;6.73;;;12.90;99.90;;;;;;4965615;28;20259;-87
2024/02/05 09:14:00;;;;;;;15.17;5.53;;;12.80;99.90;;;;;;4977239;28;20467;-84
2024/02/05 09:16:26;;;;;;;12.20;5.20;;;12.90;99.90;;;;;;4991427;28;20596;-84
2024/02/05 09:18:53;;;;;;;17.10;6.40;;;13.00;99.90;;;;;;4987717;28;20184;-87
2024/02/05 09:21:22;;;;;;;23.50;6.83;;;13.10;99.90;;;;;;4993132;28;20274;-86
2024/02/05 09:23:47;;;;;;;19.30;5.97;;;13.10;99.90;;;;;;4992500;28;20824;-87
2024/02/05 09:26:13;;;;;;;21.70;5.90;;;13.30;99.90;;;;;;4990723;28;20435;-85
2024/02/05 09:28:38;;;;;;;15.90;5.00;;;13.30;99.90;;;;;;4986009;28;20239;-86
2024/02/05 09:31:04;;;;;;;21.37;6.73;;;14.40;16.10;;;;;;4990001;28;20274;-85
2024/02/05 09:33:30;;;;;;;21.87;5.80;;;15.40;1.00;;;;;;4992159;28;20206;-83
2024/02/05 09:35:56;;;;;;;23.63;7.67;;;16.50;1.00;;;;;;4992378;28;20195;-84
2024/02/05 09:38:23;;;;;;;18.90;6.93;;;16.40;1.00;;;;;;4992962;28;20445;-85
2024/02/05 09:41:05;;;;;;;17.90;5.43;;;16.10;1.00;;;;;;4988388;28;20569;-82
2024/02/05 09:43:38;;;;;;;22.47;5.93;;;16.00;1.00;;;;;;4989711;28;20455;-85
2024/02/05 09:46:05;;;;;;;17.67;5.30;;;16.60;1.00;;;;;;4991377;28;20443;-84
2024/02/05 09:48:35;;;;;;;19.13;5.17;;;16.90;1.00;;;;;;4992688;28;20533;-85
2024/02/05 09:51:04;;;;;;;20.67;6.20;;;16.60;1.00;;;;;;4996910;28;20467;-85
2024/02/05 09:53:32;;;;;;;21.87;5.87;;;16.50;99.90;;;;;;4988889;28;20459;-84
2024/02/05 09:55:58;;;;;;;21.47;5.80;;;16.70;99.90;;;;;;5006818;28;20423;-84
2024/02/05 09:58:24;;;;;;;20.57;5.90;;;16.80;99.90;;;;;;5000892;28;20443;-84
2024/02/05 10:00:51;;;;;;;15.13;5.40;;;16.20;99.90;;;;;;5001653;28;20492;-84
2024/02/05 10:03:17;;;;;;;21.13;6.00;;;15.50;99.90;;;;;;5001180;28;20466;-85
2024/02/05 10:05:46;;;;;;;22.90;6.27;;;15.10;1.00;;;;;;5001357;28;20434;-83
2024/02/05 10:08:13;;;;;;;20.83;6.37;;;15.10;1.00;;;;;;5005273;28;20431;-84
2024/02/05 10:10:41;;;;;;;22.23;6.47;;;14.80;1.00;;;;;;4998369;28;20522;-84
2024/02/05 10:13:07;;;;;;;16.57;5.20;;;14.70;1.00;;;;;;5017778;28;20447;-82
2024/02/05 10:15:32;;;;;;;16.63;5.20;;;14.70;1.00;;;;;;5004068;28;20419;-85
2024/02/05 10:17:58;;;;;;;18.53;5.70;;;14.60;1.00;;;;;;5004107;28;20264;-82
2024/02/05 10:20:35;;;;;;;16.63;6.30;;;14.70;1.00;;;;;;5004097;28;20192;-84
2024/02/05 10:23:03;;;;;;;26.50;7.13;;;14.80;1.00;;;;;;5002800;28;20282;-86
2024/02/05 10:25:29;;;;;;;26.97;6.17;;;14.60;1.00;;;;;;5003675;28;20451;-84
2024/02/05 10:28:03;;;;;;;15.77;5.67;;;14.30;1.00;;;;;;5002739;28;20784;-84
2024/02/05 10:30:29;;;;;;;25.23;6.20;;;14.30;1.00;;;;;;5002159;28;20200;-82
2024/02/05 10:32:59;;;;;;;19.90;6.00;;;14.40;1.00;;;;;;5003274;28;20436;-85
2024/02/05 10:35:26;;;;;;;17.57;4.90;;;14.20;1.00;;;;;;5003499;28;20419;-85
2024/02/05 10:37:52;;;;;;;24.30;7.43;;;14.20;1.00;;;;;;5001713;28;20415;-84
2024/02/05 10:40:17;;;;;;;18.37;5.77;;;14.30;1.00;;;;;;5004142;28;20433;-84
2024/02/05 10:42:44;;;;;;;27.77;6.83;;;14.60;1.00;;;;;;4997975;28;20658;-83
2024/02/05 10:45:10;;;;;;;18.10;4.97;;;14.70;1.00;;;;;;5000055;28;20188;-83
2024/02/05 10:47:36;;;;;;;18.13;5.63;;;14.80;1.00;;;;;;4996820;28;20863;-85
2024/02/05 10:50:07;;;;;;;15.37;5.20;;;14.90;1.00;;;;;;5000810;28;20466;-84
2024/02/05 10:52:33;;;;;;;16.30;6.77;;;15.10;1.00;;;;;;4999902;28;20204;-86
2024/02/05 10:55:02;;;;;;;20.23;6.10;;;15.00;1.00;;;;;;4995067;28;20462;-83
2024/02/05 10:57:28;;;;;;;17.23;5.27;;;15.20;1.00;;;;;;4995922;28;20448;-83
2024/02/05 10:59:54;;;;;;;17.57;4.67;;;15.40;1.00;;;;;;4998090;28;20463;-82
2024/02/05 11:02:25;;;;;;;17.70;5.30;;;15.70;1.00;;;;;;5000909;28;20477;-83
2024/02/05 11:04:54;;;;;;;18.87;5.23;;;15.60;1.00;;;;;;5001405;28;20673;-86
2024/02/05 11:07:24;;;;;;;17.40;5.23;;;15.30;1.00;;;;;;4998623;28;20454;-81
2024/02/05 11:09:50;;;;;;;15.53;4.70;;;15.10;1.00;;;;;;4996670;28;20450;-82
2024/02/05 11:12:21;;;;;;;17.77;5.33;;;14.90;1.00;;;;;;4996457;28;20431;-85
2024/02/05 11:14:51;;;;;;;21.70;4.90;;;14.90;1.00;;;;;;4987367;28;20537;-83
2024/02/05 11:17:18;;;;;;;19.17;6.27;;;15.00;1.00;;;;;;4995676;28;20613;-82
2024/02/05 11:19:46;;;;;;;18.00;5.60;;;15.30;1.00;;;;;;4997106;28;20438;-81
2024/02/05 11:22:15;;;;;;;18.40;5.37;;;15.40;99.90;;;;;;4997417;28;20885;-85
2024/02/05 11:24:41;;;;;;;19.43;5.60;;;15.90;99.90;;;;;;5014039;28;20462;-81
2024/02/05 11:27:09;;;;;;;16.80;5.20;;;16.50;99.90;;;;;;4999452;28;21180;-82
2024/02/05 11:29:36;;;;;;;24.37;6.10;;;17.00;99.90;;;;;;4997168;28;20442;-82
2024/02/05 11:32:05;;;;;;;29.60;5.93;;;17.20;99.90;;;;;;4997063;28;20439;-82
2024/02/05 11:34:36;;;;;;;13.23;4.70;;;16.80;99.90;;;;;;4998968;28;20486;-83
2024/02/05 11:37:24;;;;;;;13.53;4.30;;;17.40;99.90;;;;;;4997392;28;20450;-83
2024/02/05 11:39:51;;;;;;;25.43;5.30;;;17.70;99.90;;;;;;4992992;28;20810;-82
2024/02/05 11:42:19;;;;;;;17.43;5.20;;;18.50;99.90;;;;;;4998499;28;20443;-83
2024/02/05 11:44:54;;;;;;;14.30;4.37;;;18.40;99.90;;;;;;4997611;28;20459;-83
2024/02/05 11:47:22;;;;;;;15.70;5.60;;;18.70;99.90;;;;;;4991607;28;20439;-84
2024/02/05 11:49:48;;;;;;;12.53;4.17;;;19.20;99.90;;;;;;4994011;28;20427;-83
2024/02/05 11:52:16;;;;;;;19.87;4.67;;;18.70;99.90;;;;;;4998557;28;20429;-83
2024/02/05 11:54:41;;;;;;;18.07;5.30;;;18.80;99.90;;;;;;4998528;28;20342;-82
2024/02/05 11:57:07;;;;;;;14.83;5.73;;;17.90;99.90;;;;;;4999731;28;21125;-83
2024/02/05 11:59:32;;;;;;;16.90;5.50;;;17.10;99.90;;;;;;4996159;28;20278;-82
2024/02/05 12:01:58;;;;;;;16.80;4.80;;;17.10;99.90;;;;;;4996348;28;20239;-83
2024/02/05 12:04:24;;;;;;;15.20;5.37;;;16.40;99.90;;;;;;4996764;28;20200;-82
2024/02/05 12:06:50;;;;;;;19.50;4.50;;;16.20;99.90;;;;;;4997646;28;20242;-83
2024/02/05 12:09:17;;;;;;;14.47;4.60;;;16.50;99.90;;;;;;4995501;28;20215;-84
2024/02/05 12:11:42;;;;;;;23.40;4.97;;;16.70;99.90;;;;;;4992454;28;20812;-86
2024/02/05 12:14:10;;;;;;;27.67;4.40;;;16.50;99.90;;;;;;4991665;28;20460;-82
2024/02/05 12:16:37;;;;;;;17.00;4.90;;;16.20;99.90;;;;;;4990550;28;20221;-85
2024/02/05 12:19:03;;;;;;;15.47;4.03;;;15.80;99.90;;;;;;4993034;28;20445;-83
2024/02/05 12:21:31;;;;;;;17.37;5.33;;;16.10;99.90;;;;;;4993430;28;20474;-87
2024/02/05 12:23:57;;;;;;;13.87;5.20;;;16.40;99.90;;;;;;4993376;28;20462;-84
2024/02/05 12:26:24;;;;;;;17.93;5.03;;;17.50;99.90;;;;;;4998094;28;20527;-84
2024/02/05 12:28:51;;;;;;;15.50;5.10;;;17.90;99.90;;;;;;4995169;28;20427;-86
2024/02/05 12:31:20;;;;;;;13.67;5.97;;;17.60;99.90;;;;;;4992896;28;20431;-85
2024/02/05 12:33:56;;;;;;;16.70;5.57;;;16.80;99.90;;;;;;4993332;28;20569;-83
2024/02/05 12:36:22;;;;;;;17.90;4.97;;;16.20;99.90;;;;;;4989189;28;20442;-83
2024/02/05 12:38:48;;;;;;;18.20;5.87;;;15.80;99.90;;;;;;4994009;28;20438;-84
2024/02/05 12:41:13;;;;;;;19.13;5.87;;;16.20;99.90;;;;;;4992174;28;20525;-85